createdAt,value
2018-01-11T00:00:27.159Z,6.26
2018-01-11T00:01:27.146Z,6.30
2018-01-11T00:02:27.124Z,6.30
2018-01-11T00:03:27.115Z,6.33
2018-01-11T00:04:27.085Z,6.30
2018-01-11T00:05:27.073Z,6.19
2018-01-11T00:06:27.079Z,6.22
2018-01-11T00:07:27.048Z,6.26
2018-01-11T00:08:27.044Z,6.25
2018-01-11T00:09:27.035Z,6.19
2018-01-11T00:10:26.983Z,6.16
2018-01-11T00:11:26.961Z,6.18
2018-01-11T00:12:26.945Z,6.22
2018-01-11T00:13:26.929Z,6.13
2018-01-11T00:14:26.910Z,6.07
2018-01-11T00:15:26.887Z,6.16
2018-01-11T00:16:26.865Z,6.13
2018-01-11T00:17:26.862Z,6.13
2018-01-11T00:18:26.832Z,6.18
2018-01-11T00:19:26.814Z,6.18
2018-01-11T00:20:26.793Z,6.26
2018-01-11T00:21:26.777Z,6.19
2018-01-11T00:22:26.761Z,6.16
2018-01-11T00:23:26.749Z,6.16
2018-01-11T00:24:26.733Z,6.21
2018-01-11T00:25:26.728Z,6.21
2018-01-11T00:26:26.721Z,6.28
2018-01-11T00:27:26.673Z,6.21
2018-01-11T00:28:26.650Z,6.19
2018-01-11T00:29:26.637Z,6.26
2018-01-11T00:30:26.618Z,6.26
2018-01-11T00:31:26.597Z,6.16
2018-01-11T00:32:26.587Z,6.19
2018-01-11T00:33:26.568Z,6.16
2018-01-11T00:34:26.606Z,6.18
2018-01-11T00:35:26.523Z,6.22
2018-01-11T00:36:26.515Z,6.25
2018-01-11T00:37:26.501Z,6.28
2018-01-11T00:38:26.478Z,6.26
2018-01-11T00:39:26.457Z,6.30
2018-01-11T00:40:26.444Z,6.35
2018-01-11T00:41:26.430Z,6.32
2018-01-11T00:42:26.399Z,6.36
2018-01-11T00:43:26.387Z,6.33
2018-01-11T00:44:26.370Z,6.36
2018-01-11T00:45:26.348Z,6.26
2018-01-11T00:46:26.331Z,6.26
2018-01-11T00:47:26.316Z,6.33
2018-01-11T00:48:26.300Z,6.36
2018-01-11T00:49:26.278Z,6.36
2018-01-11T00:50:26.256Z,6.36
2018-01-11T00:51:26.245Z,6.30
2018-01-11T00:52:26.220Z,6.21
2018-01-11T00:53:26.210Z,6.16
2018-01-11T00:54:26.182Z,6.16
2018-01-11T00:55:26.194Z,6.25
2018-01-11T00:56:26.156Z,6.28
2018-01-11T00:57:26.131Z,6.21
2018-01-11T00:58:26.122Z,6.22
2018-01-11T00:59:26.102Z,6.30
2018-01-11T01:00:26.076Z,6.25
2018-01-11T01:01:26.048Z,6.21
2018-01-11T01:02:26.057Z,6.19
2018-01-11T01:03:26.022Z,6.25
2018-01-11T01:04:26.009Z,6.29
2018-01-11T01:05:25.981Z,6.29
2018-01-11T01:06:25.994Z,6.30
2018-01-11T01:07:25.949Z,6.36
2018-01-11T01:08:25.965Z,6.36
2018-01-11T01:09:25.923Z,6.35
2018-01-11T01:10:25.898Z,6.33
2018-01-11T01:11:25.875Z,6.33
2018-01-11T01:12:25.859Z,6.35
2018-01-11T01:13:25.850Z,6.36
2018-01-11T01:14:25.840Z,6.36
2018-01-11T01:15:25.805Z,6.36
2018-01-11T01:16:25.784Z,6.38
2018-01-11T01:17:25.771Z,6.40
2018-01-11T01:18:25.751Z,6.36
2018-01-11T01:19:25.729Z,6.33
2018-01-11T01:20:25.716Z,6.36
2018-01-11T01:21:25.697Z,6.38
2018-01-11T01:22:25.675Z,6.51
2018-01-11T01:23:25.659Z,6.38
2018-01-11T01:24:25.636Z,6.36
2018-01-11T01:25:25.627Z,6.33
2018-01-11T01:26:25.601Z,6.32
2018-01-11T01:27:25.593Z,6.35
2018-01-11T01:28:25.571Z,6.41
2018-01-11T01:29:25.563Z,6.40
2018-01-11T01:30:25.532Z,6.38
2018-01-11T01:31:25.522Z,6.47
2018-01-11T01:32:25.494Z,6.40
2018-01-11T01:33:25.478Z,6.38
2018-01-11T01:34:25.978Z,6.36
2018-01-11T01:35:25.456Z,6.43
2018-01-11T01:36:25.427Z,6.44
2018-01-11T01:37:25.427Z,6.43
2018-01-11T01:38:25.386Z,6.46
2018-01-11T01:39:25.417Z,6.43
2018-01-11T01:40:25.357Z,6.36
2018-01-11T01:41:25.335Z,6.29
2018-01-11T01:42:25.390Z,6.38
2018-01-11T01:43:25.311Z,6.29
2018-01-11T01:44:25.287Z,6.29
2018-01-11T01:45:25.274Z,6.36
2018-01-11T01:46:25.246Z,6.35
2018-01-11T01:47:25.236Z,6.36
2018-01-11T01:48:25.207Z,6.32
2018-01-11T01:49:25.187Z,6.40
2018-01-11T01:50:25.166Z,6.43
2018-01-11T01:51:25.157Z,6.44
2018-01-11T01:52:25.136Z,6.59
2018-01-11T01:53:25.117Z,6.47
2018-01-11T01:54:25.098Z,6.48
2018-01-11T01:55:25.079Z,6.36
2018-01-11T01:56:25.076Z,6.35
2018-01-11T01:57:25.040Z,6.35
2018-01-11T01:58:25.027Z,6.32
2018-01-11T01:59:25.005Z,6.29
2018-01-11T02:00:24.990Z,6.32
2018-01-11T02:01:25.002Z,6.36
2018-01-11T02:02:24.960Z,6.29
2018-01-11T02:03:24.930Z,6.25
2018-01-11T02:04:24.914Z,6.29
2018-01-11T02:05:24.898Z,6.29
2018-01-11T02:06:24.891Z,6.26
2018-01-11T02:07:24.866Z,6.36
2018-01-11T02:08:24.856Z,6.36
2018-01-11T02:09:24.828Z,6.30
2018-01-11T02:10:24.805Z,6.32
2018-01-11T02:11:24.786Z,6.36
2018-01-11T02:12:24.782Z,6.36
2018-01-11T02:13:24.760Z,6.33
2018-01-11T02:14:24.757Z,6.16
2018-01-11T02:15:24.725Z,6.25
2018-01-11T02:16:24.715Z,6.28
2018-01-11T02:17:24.689Z,6.30
2018-01-11T02:18:24.671Z,6.30
2018-01-11T02:19:24.661Z,6.29
2018-01-11T02:20:24.632Z,6.30
2018-01-11T02:21:24.623Z,6.25
2018-01-11T02:22:24.600Z,6.38
2018-01-11T02:23:24.571Z,6.33
2018-01-11T02:24:24.571Z,6.43
2018-01-11T02:25:24.539Z,6.43
2018-01-11T02:26:24.533Z,6.44
2018-01-11T02:27:24.523Z,6.46
2018-01-11T02:28:24.510Z,6.48
2018-01-11T02:29:24.475Z,6.54
2018-01-11T02:30:24.446Z,6.51
2018-01-11T02:31:24.430Z,6.46
2018-01-11T02:32:24.418Z,6.54
2018-01-11T02:33:24.401Z,6.46
2018-01-11T02:34:24.379Z,6.51
2018-01-11T02:35:24.376Z,6.43
2018-01-11T02:36:24.376Z,6.46
2018-01-11T02:37:24.320Z,6.50
2018-01-11T02:38:24.298Z,6.47
2018-01-11T02:39:24.282Z,6.48
2018-01-11T02:40:24.276Z,6.41
2018-01-11T02:41:24.256Z,6.43
2018-01-11T02:42:24.257Z,6.36
2018-01-11T02:43:24.221Z,6.35
2018-01-11T02:44:24.202Z,6.38
2018-01-11T02:45:24.191Z,6.40
2018-01-11T02:46:24.159Z,6.40
2018-01-11T02:47:24.152Z,6.43
2018-01-11T02:48:24.140Z,6.40
2018-01-11T02:49:24.140Z,6.46
2018-01-11T02:50:24.095Z,6.48
2018-01-11T02:51:24.096Z,6.46
2018-01-11T02:52:24.066Z,6.40
2018-01-11T02:53:24.080Z,6.38
2018-01-11T02:54:24.014Z,6.44
2018-01-11T02:55:24.002Z,6.43
2018-01-11T02:56:23.977Z,6.33
2018-01-11T02:57:23.964Z,6.41
2018-01-11T02:58:23.949Z,6.32
2018-01-11T02:59:23.929Z,6.36
2018-01-11T03:00:23.906Z,6.35
2018-01-11T03:01:23.907Z,6.33
2018-01-11T03:02:23.875Z,6.38
2018-01-11T03:03:23.891Z,6.33
2018-01-11T03:04:23.843Z,6.32
2018-01-11T03:05:23.830Z,6.33
2018-01-11T03:06:23.830Z,6.32
2018-01-11T03:07:23.786Z,6.33
2018-01-11T03:08:23.859Z,6.36
2018-01-11T03:09:23.750Z,6.36
2018-01-11T03:10:23.731Z,6.29
2018-01-11T03:11:23.721Z,6.41
2018-01-11T03:12:23.748Z,6.33
2018-01-11T03:13:23.673Z,6.35
2018-01-11T03:14:23.664Z,6.36
2018-01-11T03:15:23.638Z,6.32
2018-01-11T03:16:23.619Z,6.29
2018-01-11T03:17:23.613Z,6.28
2018-01-11T03:18:23.584Z,6.28
2018-01-11T03:19:23.584Z,6.29
2018-01-11T03:20:23.546Z,6.29
2018-01-11T03:21:23.543Z,6.29
2018-01-11T03:22:23.517Z,6.29
2018-01-11T03:23:23.501Z,6.26
2018-01-11T03:24:23.527Z,6.32
2018-01-11T03:25:23.501Z,6.36
2018-01-11T03:26:23.444Z,6.29
2018-01-11T03:27:23.431Z,6.30
2018-01-11T03:28:23.405Z,6.29
2018-01-11T03:29:23.444Z,6.25
2018-01-11T03:30:23.375Z,6.28
2018-01-11T03:31:23.357Z,6.28
2018-01-11T03:32:23.351Z,6.29
2018-01-11T03:33:23.321Z,6.26
2018-01-11T03:34:23.307Z,6.32
2018-01-11T03:35:23.293Z,6.29
2018-01-11T03:36:23.272Z,6.32
2018-01-11T03:37:23.243Z,6.29
2018-01-11T03:38:23.244Z,6.32
2018-01-11T03:39:23.240Z,6.29
2018-01-11T03:40:23.197Z,6.28
2018-01-11T03:41:23.174Z,6.26
2018-01-11T03:42:23.208Z,6.30
2018-01-11T03:43:23.136Z,6.29
2018-01-11T03:44:23.137Z,6.30
2018-01-11T03:45:23.094Z,6.29
2018-01-11T03:46:23.078Z,6.32
2018-01-11T03:47:23.066Z,6.30
2018-01-11T03:48:23.056Z,6.30
2018-01-11T03:49:23.046Z,6.32
2018-01-11T03:50:23.014Z,6.33
2018-01-11T03:51:22.996Z,6.30
2018-01-11T03:52:22.986Z,6.32
2018-01-11T03:53:22.961Z,6.26
2018-01-11T03:54:22.942Z,6.28
2018-01-11T03:55:22.961Z,6.25
2018-01-11T03:56:22.910Z,6.16
2018-01-11T03:57:22.890Z,6.25
2018-01-11T03:58:22.881Z,6.21
2018-01-11T03:59:22.865Z,6.21
2018-01-11T04:00:22.836Z,6.21
2018-01-11T04:01:22.823Z,6.14
2018-01-11T04:02:22.805Z,6.18
2018-01-11T04:03:22.787Z,6.25
2018-01-11T04:04:22.759Z,6.22
2018-01-11T04:05:22.749Z,6.18
2018-01-11T04:06:22.738Z,6.14
2018-01-11T04:07:22.723Z,6.19
2018-01-11T04:08:22.735Z,6.28
2018-01-11T04:09:22.675Z,6.26
2018-01-11T04:10:22.654Z,6.22
2018-01-11T04:11:22.643Z,6.16
2018-01-11T04:12:22.621Z,6.22
2018-01-11T04:13:22.597Z,6.09
2018-01-11T04:14:22.592Z,6.16
2018-01-11T04:15:22.569Z,6.14
2018-01-11T04:16:22.545Z,6.13
2018-01-11T04:17:22.559Z,6.14
2018-01-11T04:18:22.511Z,6.10
2018-01-11T04:19:22.488Z,6.13
2018-01-11T04:20:22.498Z,6.09
2018-01-11T04:21:22.453Z,6.07
2018-01-11T04:22:22.431Z,6.10
2018-01-11T04:23:22.428Z,6.10
2018-01-11T04:24:22.479Z,6.18
2018-01-11T04:25:22.392Z,6.19
2018-01-11T04:26:22.364Z,6.14
2018-01-11T04:27:22.352Z,6.14
2018-01-11T04:28:22.377Z,6.22
2018-01-11T04:29:22.322Z,6.09
2018-01-11T04:30:22.296Z,6.11
2018-01-11T04:31:22.277Z,6.19
2018-01-11T04:32:22.259Z,6.16
2018-01-11T04:33:22.252Z,6.03
2018-01-11T04:34:22.239Z,6.10
2018-01-11T04:35:22.201Z,6.06
2018-01-11T04:36:22.183Z,6.07
2018-01-11T04:37:22.168Z,6.03
2018-01-11T04:38:22.146Z,6.10
2018-01-11T04:39:22.133Z,6.03
2018-01-11T04:40:22.130Z,6.07
2018-01-11T04:41:22.089Z,5.98
2018-01-11T04:42:22.076Z,6.03
2018-01-11T04:43:22.056Z,5.88
2018-01-11T04:44:22.034Z,5.81
2018-01-11T04:45:22.078Z,5.81
2018-01-11T04:46:22.025Z,5.75
2018-01-11T04:47:22.015Z,5.71
2018-01-11T04:48:21.963Z,5.64
2018-01-11T04:49:21.940Z,5.64
2018-01-11T04:50:21.924Z,5.53
2018-01-11T04:51:21.905Z,5.57
2018-01-11T04:52:21.895Z,5.56
2018-01-11T04:53:21.873Z,5.45
2018-01-11T04:54:21.857Z,5.38
2018-01-11T04:55:21.858Z,5.49
2018-01-11T04:56:21.874Z,5.30
2018-01-11T04:57:21.803Z,5.27
2018-01-11T04:58:21.782Z,5.31
2018-01-11T04:59:21.828Z,5.35
2018-01-11T05:00:21.757Z,5.34
2018-01-11T05:01:21.750Z,5.41
2018-01-11T05:02:21.706Z,5.32
2018-01-11T05:03:21.691Z,5.16
2018-01-11T05:04:21.671Z,5.16
2018-01-11T05:05:21.651Z,5.14
2018-01-11T05:06:21.647Z,5.22
2018-01-11T05:07:21.613Z,5.20
2018-01-11T05:08:21.622Z,5.14
2018-01-11T05:09:21.577Z,5.17
2018-01-11T05:10:21.581Z,5.13
2018-01-11T05:11:21.546Z,5.12
2018-01-11T05:12:21.580Z,5.13
2018-01-11T05:13:21.506Z,5.04
2018-01-11T05:14:21.482Z,5.04
2018-01-11T05:15:21.466Z,4.96
2018-01-11T05:16:21.444Z,4.94
2018-01-11T05:17:21.427Z,5.04
2018-01-11T05:18:21.408Z,5.02
2018-01-11T05:19:21.389Z,4.94
2018-01-11T05:20:21.364Z,4.94
2018-01-11T05:21:21.354Z,4.88
2018-01-11T05:22:21.335Z,4.76
2018-01-11T05:23:21.312Z,4.65
2018-01-11T05:24:21.296Z,4.61
2018-01-11T05:25:21.277Z,4.58
2018-01-11T05:26:21.255Z,4.52
2018-01-11T05:27:21.268Z,4.55
2018-01-11T05:28:21.229Z,4.55
2018-01-11T05:29:21.198Z,4.57
2018-01-11T05:30:21.182Z,4.72
2018-01-11T05:31:21.165Z,4.52
2018-01-11T05:32:21.144Z,4.44
2018-01-11T05:33:21.118Z,4.44
2018-01-11T05:34:21.098Z,4.33
2018-01-11T05:35:21.082Z,4.32
2018-01-11T05:36:21.069Z,4.28
2018-01-11T05:37:21.052Z,4.32
2018-01-11T05:38:21.025Z,4.43
2018-01-11T05:39:21.032Z,4.42
2018-01-11T05:40:20.991Z,4.39
2018-01-11T05:41:20.978Z,4.47
2018-01-11T05:42:20.956Z,4.47
2018-01-11T05:43:20.959Z,4.51
2018-01-11T05:44:20.936Z,4.52
2018-01-11T05:45:20.902Z,4.47
2018-01-11T05:46:20.870Z,4.54
2018-01-11T05:47:20.892Z,4.59
2018-01-11T05:48:20.841Z,4.55
2018-01-11T05:49:20.809Z,4.47
2018-01-11T05:50:20.803Z,4.39
2018-01-11T05:51:20.775Z,4.28
2018-01-11T05:52:20.756Z,4.22
2018-01-11T05:53:20.737Z,4.18
2018-01-11T05:54:20.724Z,4.00
2018-01-11T05:55:20.718Z,3.92
2018-01-11T05:56:20.706Z,3.94
2018-01-11T05:57:20.666Z,3.94
2018-01-11T05:58:20.634Z,3.85
2018-01-11T05:59:20.619Z,3.82
2018-01-11T06:00:20.593Z,3.76
2018-01-11T06:01:20.590Z,3.83
2018-01-11T06:02:20.568Z,3.85
2018-01-11T06:03:20.546Z,3.75
2018-01-11T06:04:20.523Z,3.85
2018-01-11T06:05:20.504Z,3.70
2018-01-11T06:06:20.495Z,3.76
2018-01-11T06:07:20.472Z,3.58
2018-01-11T06:08:20.472Z,3.75
2018-01-11T06:09:20.428Z,3.67
2018-01-11T06:10:20.415Z,3.67
2018-01-11T06:11:20.393Z,3.71
2018-01-11T06:12:20.378Z,3.68
2018-01-11T06:13:20.359Z,3.68
2018-01-11T06:14:20.340Z,3.44
2018-01-11T06:15:20.308Z,3.46
2018-01-11T06:16:20.289Z,3.36
2018-01-11T06:17:20.270Z,3.40
2018-01-11T06:18:20.248Z,3.34
2018-01-11T06:19:20.232Z,3.46
2018-01-11T06:20:20.209Z,3.47
2018-01-11T06:21:20.198Z,3.57
2018-01-11T06:22:20.173Z,3.57
2018-01-11T06:23:20.153Z,3.58
2018-01-11T06:24:20.156Z,3.58
2018-01-11T06:25:20.134Z,3.58
2018-01-11T06:26:20.118Z,3.54
2018-01-11T06:27:20.074Z,3.57
2018-01-11T06:28:20.048Z,3.46
2018-01-11T06:29:20.036Z,3.53
2018-01-11T06:30:20.020Z,3.43
2018-01-11T06:31:20.003Z,3.28
2018-01-11T06:32:19.974Z,3.24
2018-01-11T06:33:19.961Z,3.24
2018-01-11T06:34:19.939Z,3.23
2018-01-11T06:35:19.926Z,3.23
2018-01-11T06:36:19.900Z,3.34
2018-01-11T06:37:19.884Z,3.43
2018-01-11T06:38:19.852Z,3.42
2018-01-11T06:39:19.836Z,3.53
2018-01-11T06:40:19.823Z,3.50
2018-01-11T06:41:19.798Z,3.44
2018-01-11T06:42:19.778Z,3.49
2018-01-11T06:43:19.756Z,3.57
2018-01-11T06:44:19.740Z,3.61
2018-01-11T06:45:19.717Z,3.57
2018-01-11T06:46:19.692Z,3.50
2018-01-11T06:47:19.682Z,3.62
2018-01-11T06:48:19.656Z,3.58
2018-01-11T06:49:19.635Z,3.54
2018-01-11T06:50:19.616Z,3.53
2018-01-11T06:51:19.595Z,3.68
2018-01-11T06:52:19.573Z,3.65
2018-01-11T06:53:19.554Z,3.62
2018-01-11T06:54:19.537Z,3.76
2018-01-11T06:55:19.525Z,3.78
2018-01-11T06:56:19.499Z,3.82
2018-01-11T06:57:19.490Z,3.86
2018-01-11T06:58:19.464Z,3.76
2018-01-11T06:59:19.439Z,3.78
2018-01-11T07:00:19.432Z,3.79
2018-01-11T07:01:19.403Z,3.76
2018-01-11T07:02:19.383Z,3.78
2018-01-11T07:03:19.364Z,3.76
2018-01-11T07:04:19.335Z,3.83
2018-01-11T07:05:19.325Z,3.92
2018-01-11T07:06:19.306Z,3.90
2018-01-11T07:07:19.293Z,3.88
2018-01-11T07:08:19.268Z,3.89
2018-01-11T07:09:19.252Z,3.80
2018-01-11T07:10:19.260Z,3.88
2018-01-11T07:11:19.213Z,3.83
2018-01-11T07:12:19.191Z,3.94
2018-01-11T07:13:19.166Z,3.92
2018-01-11T07:14:19.143Z,3.94
2018-01-11T07:15:19.130Z,3.90
2018-01-11T07:16:19.108Z,3.96
2018-01-11T07:17:19.091Z,3.94
2018-01-11T07:18:19.066Z,3.98
2018-01-11T07:19:19.050Z,3.98
2018-01-11T07:20:19.031Z,4.08
2018-01-11T07:21:19.015Z,4.21
2018-01-11T07:22:18.993Z,4.22
2018-01-11T07:23:18.993Z,4.29
2018-01-11T07:24:18.954Z,4.33
2018-01-11T07:25:18.941Z,4.25
2018-01-11T07:26:18.913Z,4.26
2018-01-11T07:27:18.896Z,4.26
2018-01-11T07:28:18.875Z,4.28
2018-01-11T07:29:18.858Z,4.29
2018-01-11T07:30:18.849Z,4.24
2018-01-11T07:31:18.820Z,4.16
2018-01-11T07:32:18.799Z,4.19
2018-01-11T07:33:18.801Z,4.26
2018-01-11T07:34:18.766Z,4.34
2018-01-11T07:35:18.741Z,4.36
2018-01-11T07:36:18.721Z,4.42
2018-01-11T07:37:18.737Z,4.47
2018-01-11T07:38:18.693Z,4.50
2018-01-11T07:39:18.667Z,4.43
2018-01-11T07:40:18.651Z,4.54
2018-01-11T07:41:18.632Z,4.51
2018-01-11T07:42:18.613Z,4.50
2018-01-11T07:43:18.598Z,4.51
2018-01-11T07:44:18.575Z,4.39
2018-01-11T07:45:18.550Z,4.44
2018-01-11T07:46:18.537Z,4.52
2018-01-11T07:47:18.524Z,4.55
2018-01-11T07:48:18.495Z,4.42
2018-01-11T07:49:18.479Z,4.50
2018-01-11T07:50:18.461Z,4.62
2018-01-11T07:51:18.434Z,4.62
2018-01-11T07:52:18.422Z,4.62
2018-01-11T07:53:18.412Z,4.69
2018-01-11T07:54:18.398Z,4.61
2018-01-11T07:55:18.369Z,4.61
2018-01-11T07:56:18.346Z,4.69
2018-01-11T07:57:18.330Z,4.64
2018-01-11T07:58:18.318Z,4.64
2018-01-11T07:59:18.286Z,4.72
2018-01-11T08:00:18.266Z,4.70
2018-01-11T08:01:18.247Z,4.76
2018-01-11T08:02:18.231Z,4.79
2018-01-11T08:03:18.223Z,4.80
2018-01-11T08:04:18.195Z,4.94
2018-01-11T08:05:18.177Z,4.92
2018-01-11T08:06:18.155Z,4.86
2018-01-11T08:07:18.143Z,4.95
2018-01-11T08:08:18.124Z,4.92
2018-01-11T08:09:18.101Z,4.95
2018-01-11T08:10:18.079Z,5.02
2018-01-11T08:11:18.066Z,5.05
2018-01-11T08:12:18.046Z,4.99
2018-01-11T08:13:18.025Z,5.04
2018-01-11T08:14:18.005Z,5.02
2018-01-11T08:15:17.986Z,5.04
2018-01-11T08:16:17.972Z,5.02
2018-01-11T08:17:17.937Z,5.04
2018-01-11T08:18:17.934Z,5.05
2018-01-11T08:19:17.915Z,5.14
2018-01-11T08:20:17.925Z,5.09
2018-01-11T08:21:17.880Z,5.05
2018-01-11T08:22:17.854Z,5.07
2018-01-11T08:23:17.838Z,5.05
2018-01-11T08:24:17.822Z,5.12
2018-01-11T08:25:17.798Z,5.09
2018-01-11T08:26:17.795Z,5.05
2018-01-11T08:27:17.756Z,5.12
2018-01-11T08:28:17.741Z,5.14
2018-01-11T08:29:17.721Z,5.17
2018-01-11T08:30:17.709Z,5.23
2018-01-11T08:31:17.684Z,5.23
2018-01-11T08:32:17.671Z,5.22
2018-01-11T08:33:17.648Z,5.19
2018-01-11T08:34:17.636Z,5.22
2018-01-11T08:35:17.609Z,5.27
2018-01-11T08:36:17.593Z,5.25
2018-01-11T08:37:17.593Z,5.31
2018-01-11T08:38:17.555Z,5.37
2018-01-11T08:39:17.552Z,5.32
2018-01-11T08:40:17.519Z,5.34
2018-01-11T08:41:17.500Z,5.31
2018-01-11T08:42:17.491Z,5.23
2018-01-11T08:43:17.462Z,5.30
2018-01-11T08:44:17.450Z,5.38
2018-01-11T08:45:17.430Z,5.32
2018-01-11T08:46:17.414Z,5.37
2018-01-11T08:47:17.388Z,5.41
2018-01-11T08:48:17.372Z,5.35
2018-01-11T08:49:17.356Z,5.38
2018-01-11T08:50:17.341Z,5.32
2018-01-11T08:51:17.318Z,5.34
2018-01-11T08:52:17.310Z,5.32
2018-01-11T08:53:17.286Z,5.38
2018-01-11T08:54:17.260Z,5.48
2018-01-11T08:55:17.250Z,5.46
2018-01-11T08:56:17.225Z,5.52
2018-01-11T08:57:17.212Z,5.57
2018-01-11T08:58:17.195Z,5.57
2018-01-11T08:59:17.176Z,5.63
2018-01-11T09:00:17.160Z,5.64
2018-01-11T09:01:17.141Z,5.67
2018-01-11T09:02:17.119Z,5.63
2018-01-11T09:03:17.099Z,5.52
2018-01-11T09:04:17.080Z,5.68
2018-01-11T09:05:17.088Z,5.55
2018-01-11T09:06:17.051Z,5.50
2018-01-11T09:07:17.039Z,5.68
2018-01-11T09:08:17.013Z,5.57
2018-01-11T09:09:16.999Z,5.59
2018-01-11T09:10:16.977Z,5.59
2018-01-11T09:11:16.954Z,5.60
2018-01-11T09:12:16.935Z,5.53
2018-01-11T09:13:16.922Z,5.63
2018-01-11T09:14:16.899Z,5.67
2018-01-11T09:15:16.880Z,5.70
2018-01-11T09:16:16.864Z,5.78
2018-01-11T09:17:16.851Z,5.81
2018-01-11T09:18:16.825Z,5.78
2018-01-11T09:19:16.816Z,5.89
2018-01-11T09:20:16.810Z,5.81
2018-01-11T09:21:16.782Z,5.89
2018-01-11T09:22:16.769Z,5.89
2018-01-11T09:23:16.744Z,5.92
2018-01-11T09:24:16.728Z,6.03
2018-01-11T09:25:16.711Z,6.03
2018-01-11T09:26:16.692Z,5.96
2018-01-11T09:27:16.674Z,5.98
2018-01-11T09:28:16.656Z,6.06
2018-01-11T09:29:16.637Z,6.06
2018-01-11T09:30:16.623Z,6.10
2018-01-11T09:31:16.596Z,6.11
2018-01-11T09:32:16.580Z,6.06
2018-01-11T09:33:16.562Z,6.13
2018-01-11T09:34:16.548Z,6.07
2018-01-11T09:35:16.526Z,6.16
2018-01-11T09:36:16.509Z,6.13
2018-01-11T09:37:16.510Z,6.16
2018-01-11T09:38:16.475Z,6.19
2018-01-11T09:39:16.458Z,6.26
2018-01-11T09:40:16.442Z,6.21
2018-01-11T09:41:16.424Z,6.21
2018-01-11T09:42:16.399Z,6.14
2018-01-11T09:43:16.385Z,6.21
2018-01-11T09:44:16.370Z,6.16
2018-01-11T09:45:16.353Z,6.26
2018-01-11T09:46:16.328Z,6.18
2018-01-11T09:47:16.318Z,6.21
2018-01-11T09:48:16.302Z,6.21
2018-01-11T09:49:16.280Z,6.22
2018-01-11T09:50:16.279Z,6.18
2018-01-11T09:51:16.276Z,6.18
2018-01-11T09:52:16.229Z,6.19
2018-01-11T09:53:16.210Z,6.18
2018-01-11T09:54:16.194Z,6.26
2018-01-11T09:55:16.172Z,6.30
2018-01-11T09:56:16.157Z,6.32
2018-01-11T09:57:16.134Z,6.30
2018-01-11T09:58:16.121Z,6.30
2018-01-11T09:59:16.104Z,6.30
2018-01-11T10:00:16.089Z,6.36
2018-01-11T10:01:16.084Z,6.38
2018-01-11T10:02:16.051Z,6.41
2018-01-11T10:03:16.029Z,6.36
2018-01-11T10:04:16.015Z,6.38
2018-01-11T10:05:15.998Z,6.32
2018-01-11T10:06:15.976Z,6.33
2018-01-11T10:07:15.963Z,6.47
2018-01-11T10:08:15.979Z,6.43
2018-01-11T10:09:15.937Z,6.46
2018-01-11T10:10:15.906Z,6.47
2018-01-11T10:11:15.895Z,6.50
2018-01-11T10:12:15.872Z,6.50
2018-01-11T10:13:15.855Z,6.46
2018-01-11T10:14:15.841Z,6.61
2018-01-11T10:15:15.824Z,6.54
2018-01-11T10:16:15.809Z,6.65
2018-01-11T10:17:15.788Z,6.62
2018-01-11T10:18:15.766Z,6.66
2018-01-11T10:19:15.746Z,6.68
2018-01-11T10:20:15.749Z,6.62
2018-01-11T10:21:15.721Z,6.65
2018-01-11T10:22:15.698Z,6.80
2018-01-11T10:23:15.686Z,6.79
2018-01-11T10:24:15.666Z,6.77
2018-01-11T10:25:15.649Z,6.81
2018-01-11T10:26:15.634Z,6.87
2018-01-11T10:27:15.612Z,6.90
2018-01-11T10:28:15.595Z,6.89
2018-01-11T10:29:15.582Z,6.83
2018-01-11T10:30:15.557Z,6.90
2018-01-11T10:31:15.550Z,6.95
2018-01-11T10:32:15.532Z,6.99
2018-01-11T10:33:15.512Z,6.98
2018-01-11T10:34:15.503Z,6.94
2018-01-11T10:35:15.480Z,6.95
2018-01-11T10:36:15.462Z,7.07
2018-01-11T10:37:15.439Z,7.08
2018-01-11T10:38:15.426Z,7.12
2018-01-11T10:39:15.410Z,7.09
2018-01-11T10:40:15.396Z,7.08
2018-01-11T10:41:15.380Z,6.91
2018-01-11T10:42:15.364Z,7.02
2018-01-11T10:43:15.347Z,6.95
2018-01-11T10:44:15.325Z,7.05
2018-01-11T10:45:15.309Z,7.13
2018-01-11T10:46:15.297Z,7.05
2018-01-11T10:47:15.275Z,7.15
2018-01-11T10:48:15.255Z,7.04
2018-01-11T10:49:15.264Z,7.07
2018-01-11T10:50:15.220Z,7.01
2018-01-11T10:51:15.217Z,6.95
2018-01-11T10:52:15.204Z,6.94
2018-01-11T10:53:15.178Z,7.04
2018-01-11T10:54:15.175Z,6.95
2018-01-11T10:55:15.136Z,6.90
2018-01-11T10:56:15.127Z,6.81
2018-01-11T10:57:15.105Z,6.97
2018-01-11T10:58:15.095Z,6.89
2018-01-11T10:59:15.102Z,6.87
2018-01-11T11:00:15.056Z,7.04
2018-01-11T11:01:15.034Z,7.04
2018-01-11T11:02:15.025Z,7.05
2018-01-11T11:03:15.019Z,7.15
2018-01-11T11:04:14.989Z,7.20
2018-01-11T11:05:14.973Z,7.38
2018-01-11T11:06:14.970Z,7.49
2018-01-11T11:07:14.947Z,7.63
2018-01-11T11:08:14.925Z,7.62
2018-01-11T11:09:14.906Z,7.71
2018-01-11T11:10:14.896Z,7.72
2018-01-11T11:11:14.871Z,7.74
2018-01-11T11:12:14.852Z,7.71
2018-01-11T11:13:14.836Z,7.74
2018-01-11T11:14:14.826Z,7.69
2018-01-11T11:15:14.810Z,7.72
2018-01-11T11:16:14.796Z,7.56
2018-01-11T11:17:14.774Z,7.45
2018-01-11T11:18:14.758Z,7.58
2018-01-11T11:19:14.735Z,7.66
2018-01-11T11:20:14.729Z,7.58
2018-01-11T11:21:14.716Z,7.52
2018-01-11T11:22:14.736Z,7.58
2018-01-11T11:23:14.674Z,7.42
2018-01-11T11:24:14.656Z,7.42
2018-01-11T11:25:14.812Z,7.42
2018-01-11T11:26:14.649Z,7.42
2018-01-11T11:27:14.617Z,7.42
2018-01-11T11:28:14.590Z,7.42
2018-01-11T11:29:14.587Z,7.41
2018-01-11T11:30:14.561Z,7.50
2018-01-11T11:31:14.548Z,7.53
2018-01-11T11:32:14.526Z,7.50
2018-01-11T11:33:14.526Z,7.52
2018-01-11T11:34:14.501Z,7.75
2018-01-11T11:35:14.488Z,7.67
2018-01-11T11:36:14.472Z,7.71
2018-01-11T11:37:14.456Z,7.82
2018-01-11T11:38:14.437Z,7.87
2018-01-11T11:39:14.440Z,7.96
2018-01-11T11:40:14.442Z,8.03
2018-01-11T11:41:14.404Z,8.08
2018-01-11T11:42:14.379Z,8.20
2018-01-11T11:43:14.369Z,8.25
2018-01-11T11:44:14.350Z,8.22
2018-01-11T11:45:14.353Z,8.26
2018-01-11T11:46:14.309Z,8.29
2018-01-11T11:47:14.296Z,8.39
2018-01-11T11:48:14.283Z,8.45
2018-01-11T11:49:14.264Z,8.45
2018-01-11T11:50:14.248Z,8.55
2018-01-11T11:51:14.232Z,8.48
2018-01-11T11:52:14.226Z,8.50
2018-01-11T11:53:14.207Z,8.62
2018-01-11T11:54:14.184Z,8.53
2018-01-11T11:55:14.178Z,8.57
2018-01-11T11:56:14.159Z,8.66
2018-01-11T11:57:14.146Z,8.60
2018-01-11T11:58:14.126Z,8.69
2018-01-11T11:59:14.115Z,8.68
2018-01-11T12:00:14.092Z,8.62
2018-01-11T12:01:14.079Z,8.53
2018-01-11T12:02:14.072Z,8.63
2018-01-11T12:03:14.060Z,8.76
2018-01-11T12:04:14.047Z,8.71
2018-01-11T12:05:14.039Z,8.81
2018-01-11T12:06:14.012Z,8.72
2018-01-11T12:07:14.005Z,8.75
2018-01-11T12:08:13.980Z,8.72
2018-01-11T12:09:13.967Z,8.76
2018-01-11T12:10:13.952Z,8.68
2018-01-11T12:11:13.935Z,8.60
2018-01-11T12:12:13.935Z,8.73
2018-01-11T12:13:13.903Z,8.71
2018-01-11T12:14:13.897Z,8.68
2018-01-11T12:15:13.878Z,8.71
2018-01-11T12:16:13.859Z,8.81
2018-01-11T12:17:13.849Z,8.90
2018-01-11T12:18:13.830Z,8.90
2018-01-11T12:19:13.824Z,8.88
2018-01-11T12:20:13.804Z,8.88
2018-01-11T12:21:13.792Z,8.88
2018-01-11T12:22:13.775Z,8.86
2018-01-11T12:23:13.767Z,8.88
2018-01-11T12:24:13.758Z,8.88
2018-01-11T12:25:13.733Z,8.88
2018-01-11T12:26:13.737Z,8.91
2018-01-11T12:27:13.700Z,8.86
2018-01-11T12:28:13.687Z,8.91
2018-01-11T12:29:13.668Z,8.90
2018-01-11T12:30:13.658Z,8.86
2018-01-11T12:31:13.677Z,8.91
2018-01-11T12:32:13.636Z,8.91
2018-01-11T12:33:13.617Z,8.88
2018-01-11T12:34:13.604Z,8.81
2018-01-11T12:35:13.623Z,8.81
2018-01-11T12:36:13.567Z,8.83
2018-01-11T12:37:13.561Z,8.84
2018-01-11T12:38:13.548Z,8.79
2018-01-11T12:39:13.526Z,8.90
2018-01-11T12:40:13.529Z,8.93
2018-01-11T12:41:13.516Z,8.79
2018-01-11T12:42:14.191Z,8.69
2018-01-11T12:43:13.468Z,8.76
2018-01-11T12:44:13.464Z,8.84
2018-01-11T12:45:13.458Z,8.68
2018-01-11T12:46:13.442Z,8.83
2018-01-11T12:47:13.419Z,8.94
2018-01-11T12:48:13.398Z,8.90
2018-01-11T12:49:13.396Z,8.81
2018-01-11T12:50:13.392Z,8.96
2018-01-11T12:51:13.376Z,8.91
2018-01-11T12:52:13.350Z,8.90
2018-01-11T12:53:13.325Z,8.84
2018-01-11T12:54:13.309Z,8.81
2018-01-11T12:55:13.304Z,8.86
2018-01-11T12:56:13.287Z,8.81
2018-01-11T12:57:13.267Z,8.83
2018-01-11T12:58:13.251Z,8.73
2018-01-11T12:59:13.262Z,8.58
2018-01-11T13:00:13.226Z,8.55
2018-01-11T13:01:13.216Z,8.62
2018-01-11T13:02:13.196Z,8.62
2018-01-11T13:03:13.180Z,8.51
2018-01-11T13:04:13.167Z,8.60
2018-01-11T13:05:13.148Z,8.48
2018-01-11T13:06:13.132Z,8.51
2018-01-11T13:07:13.122Z,8.60
2018-01-11T13:08:13.114Z,8.53
2018-01-11T13:09:13.088Z,8.60
2018-01-11T13:10:13.068Z,8.65
2018-01-11T13:11:13.055Z,8.58
2018-01-11T13:12:13.048Z,8.65
2018-01-11T13:13:13.036Z,8.79
2018-01-11T13:14:13.052Z,8.83
2018-01-11T13:15:13.014Z,8.84
2018-01-11T13:16:12.987Z,8.78
2018-01-11T13:17:12.974Z,8.60
2018-01-11T13:18:12.968Z,8.62